Brigham City, Utah
Current Conditions -  °F | °C
As of 3:35 AM on Friday 24 Oct 2014 (Local Time) from KBMC Reporting Station
Clear Clear  
Wind Chill: 46°   Ceiling: Unl
Heat Index: 48°   Visibility: 10mi
Dew Point: 36°   Wind: 6mph
Humidity: 63%   Direction: 330°NNW
Pressure: 30.12"   Gusts: NA
Location:  41.51°N, 112.01°W
Report Text: KBMC 240935Z AUTO 33005KT 10SM CLR 09/02 A3012 RMK AO1 T00900024
Loading
Personal Weather Stations






























Interactive Weather Map
Tropical Storm Tracking
New forecast layout! Learn more

10-Day Weather Forecast

Advertisements
Track Severe Weather on mobile